Time;durP1;ratioP1;P1;durP2;ratioP2;P2;SDS_P1;SDS_P2;PMS_P1;PMS_P2;Temp;Humidity;BMP_temperature;BMP_pressure;BME280_temperature;BME280_humidity;BME280_pressure;Samples;Min_cycle;Max_cycle;Signal;HPM_P1;HPM_P2
2022/01/14 00:00:00;;;;;;;16.00;2.63;;;7.20;99.90;;;5.64;100.00;102290.88;4878212;28;20073;-80
2022/01/14 00:02:30;;;;;;;9.13;1.30;;;;;;;5.58;100.00;102282.19;4854180;28;20046;-80
2022/01/14 00:04:56;;;;;;;10.77;1.85;;;;;;;5.56;100.00;102271.72;4840287;28;20047;-80
2022/01/14 00:07:31;;;;;;;13.70;2.22;;;7.10;99.90;;;5.61;100.00;102284.78;4880162;28;20440;-79
2022/01/14 00:09:59;;;;;;;19.83;2.40;;;7.10;99.90;;;5.59;100.00;102276.06;4792172;28;20516;-81
2022/01/14 00:12:39;;;;;;;14.57;1.30;;;7.10;99.90;;;5.62;100.00;102278.69;4861218;28;20087;-79
2022/01/14 00:15:29;;;;;;;27.55;2.38;;;;;;;5.61;100.00;102267.34;4854476;28;20043;-79
2022/01/14 00:17:58;;;;;;;17.58;2.20;;;7.20;99.90;;;5.69;100.00;102275.19;4822869;28;20126;-79
2022/01/14 00:20:24;;;;;;;11.05;1.88;;;7.20;99.90;;;5.68;100.00;102257.75;4849088;28;20143;-81
2022/01/14 00:23:00;;;;;;;13.85;2.22;;;7.20;99.90;;;5.65;100.00;102261.25;4870714;28;20785;-78
2022/01/14 00:34:01;;;;;;;15.65;2.30;;;7.20;99.90;;;5.73;100.00;102242.94;4952062;23;22742;-80
2022/01/14 00:36:50;;;;;;;11.48;2.65;;;7.30;99.90;;;5.78;100.00;102240.31;4871436;28;20046;-79
2022/01/14 00:39:19;;;;;;;21.30;2.38;;;7.30;99.90;;;5.79;100.00;102242.94;4890918;28;20048;-82
2022/01/14 00:41:57;;;;;;;16.30;2.10;;;7.30;99.90;;;5.85;100.00;102239.44;4900344;28;20069;-80
2022/01/14 00:44:37;;;;;;;12.88;1.77;;;7.30;99.90;;;5.90;100.00;102240.31;4925608;28;20482;-81
2022/01/14 00:47:04;;;;;;;23.73;2.38;;;;;;;5.89;100.00;102222.84;4924324;28;20059;-79
2022/01/14 00:49:39;;;;;;;9.18;1.75;;;7.40;99.90;;;5.94;100.00;102231.56;4907199;28;20050;-79
2022/01/14 00:52:06;;;;;;;16.23;2.60;;;;;;;5.92;100.00;102225.47;4934130;28;20862;-79
2022/01/14 00:54:32;;;;;;;23.73;2.42;;;7.40;99.90;;;5.92;100.00;102220.25;4936693;28;20038;-78
2022/01/14 00:59:36;;;;;;;14.20;2.20;;;7.40;99.90;;;5.92;100.00;102205.44;4884426;28;20437;-79
2022/01/14 01:02:10;;;;;;;26.25;2.55;;;7.40;99.90;;;5.91;100.00;102202.81;4888600;28;20037;-78
2022/01/14 01:04:40;;;;;;;14.43;1.83;;;;;;;5.85;100.00;102189.75;4847955;29;20040;-81
2022/01/14 01:07:29;;;;;;;13.10;2.17;;;7.40;99.90;;;5.89;100.00;102209.78;4865473;28;20045;-81
2022/01/14 01:10:01;;;;;;;20.63;2.15;;;;;;;5.88;100.00;102203.69;4864311;28;20459;-80
2022/01/14 01:15:53;;;;;;;27.23;3.22;;;;;;;5.81;100.00;102190.63;4872431;28;20063;-82
2022/01/14 01:18:29;;;;;;;19.77;2.28;;;7.30;99.90;;;5.80;100.00;102194.16;4865578;28;20041;-79
2022/01/14 01:21:11;;;;;;;16.50;2.38;;;;;;;5.76;100.00;102191.53;4928098;28;20042;-81
2022/01/14 01:23:44;;;;;;;17.73;2.03;;;7.30;99.90;;;5.77;100.00;102195.03;4891832;28;20405;-80
2022/01/14 01:26:16;;;;;;;20.38;2.30;;;7.30;99.90;;;5.73;100.00;102181.09;4905189;28;20041;-78
2022/01/14 01:29:17;;;;;;;17.65;2.03;;;;;;;5.73;100.00;102188.94;4893520;28;20030;-81
2022/01/14 01:31:45;;;;;;;21.98;2.13;;;7.30;99.90;;;5.74;100.00;102184.56;4910623;28;20037;-80
2022/01/14 01:34:40;;;;;;;13.07;2.08;;;7.20;99.90;;;5.71;100.00;102181.97;4879266;28;20046;-80
2022/01/14 01:37:06;;;;;;;19.83;2.58;;;7.20;99.90;;;5.71;100.00;102180.22;4919328;28;20030;-80
2022/01/14 01:39:35;;;;;;;21.98;2.20;;;7.20;99.90;;;5.65;100.00;102171.53;4925235;28;20931;-80
2022/01/14 01:42:10;;;;;;;14.07;1.83;;;7.20;99.90;;;5.58;100.00;102168.06;4927589;28;20034;-80
2022/01/14 01:44:39;;;;;;;20.35;2.05;;;7.10;99.90;;;5.55;100.00;102171.56;4916584;28;20056;-80
2022/01/14 01:47:32;;;;;;;23.13;2.35;;;;;;;5.44;100.00;102160.28;4937213;28;20030;-83
2022/01/14 01:50:07;;;;;;;20.13;2.55;;;7.00;99.90;;;5.40;100.00;102160.25;4893391;28;20049;-79
2022/01/14 01:52:38;;;;;;;24.35;3.03;;;6.90;99.90;;;5.29;100.00;102149.84;4925755;28;20038;-78
2022/01/14 01:55:18;;;;;;;23.67;2.15;;;6.90;99.90;;;5.28;100.00;102153.34;4913756;28;20022;-82
2022/01/14 01:57:46;;;;;;;15.40;2.40;;;;;;;5.21;100.00;102155.09;4884708;28;20048;-83
2022/01/14 02:00:26;;;;;;;16.67;2.30;;;6.80;99.90;;;5.14;100.00;102132.47;4883658;28;20572;-81
2022/01/14 02:02:59;;;;;;;15.75;1.95;;;6.70;99.90;;;5.11;100.00;102127.25;4882699;28;20042;-83
2022/01/14 02:05:25;;;;;;;13.75;1.85;;;6.70;99.90;;;5.07;100.00;102122.91;4880751;28;20035;-82
2022/01/14 02:07:52;;;;;;;13.05;1.88;;;6.60;99.90;;;4.99;100.00;102115.09;4896507;28;20126;-79
2022/01/14 02:10:30;;;;;;;22.13;2.28;;;6.60;99.90;;;4.96;100.00;102114.22;4862734;28;20051;-79
2022/01/14 02:12:56;;;;;;;17.98;2.13;;;6.50;99.90;;;4.98;100.00;102112.47;4857584;28;20046;-80
2022/01/14 02:27:00;;;;;;;12.48;2.00;;;6.30;99.90;;;4.76;100.00;102083.78;4911099;28;20158;-80
2022/01/14 02:29:27;;;;;;;19.90;2.85;;;6.30;99.90;;;4.70;100.00;102092.47;4912942;28;20074;-82
2022/01/14 02:32:02;;;;;;;25.58;2.47;;;6.30;99.90;;;4.70;100.00;102089.00;4892435;28;20033;-82
2022/01/14 02:34:28;;;;;;;17.77;1.88;;;;;;;4.68;100.00;102088.13;4918423;28;20519;-80
2022/01/14 02:37:05;;;;;;;;;;;;;;;;;;;;;
2022/01/14 02:39:32;;;;;;;17.83;2.30;;;6.30;99.90;;;4.70;100.00;102083.78;4855913;28;20394;-79
2022/01/14 02:41:58;;;;;;;13.18;1.15;;;6.30;99.90;;;4.69;100.00;102075.09;4863455;28;20056;-81
2022/01/14 02:44:26;;;;;;;23.67;2.90;;;6.30;99.90;;;4.72;100.00;102069.00;4892575;28;20119;-81
2022/01/14 02:47:04;;;;;;;10.82;2.05;;;6.30;99.90;;;4.75;100.00;102057.69;4904639;28;20034;-80
2022/01/14 02:49:40;;;;;;;23.67;2.70;;;;;;;4.76;100.00;102049.88;4926896;28;20448;-82
2022/01/14 02:52:09;;;;;;;10.13;1.73;;;6.30;99.90;;;4.75;100.00;102039.41;4890764;28;20898;-79
2022/01/14 02:55:13;;;;;;;15.85;2.20;;;;;;;4.79;100.00;102043.75;4861898;28;20042;-80
2022/01/14 02:57:52;;;;;;;18.08;2.20;;;6.30;99.90;;;4.82;100.00;102043.78;4920771;28;20034;-82
2022/01/14 03:00:28;;;;;;;24.45;2.47;;;6.30;99.90;;;4.86;100.00;102029.81;4876776;28;20055;-79
2022/01/14 03:03:00;;;;;;;19.38;2.08;;;6.40;99.90;;;4.94;100.00;102028.06;4876513;28;20043;-81
2022/01/14 03:05:38;;;;;;;12.30;1.85;;;6.50;99.90;;;4.99;100.00;102020.22;4899869;28;20039;-81
2022/01/14 03:08:20;;;;;;;19.70;2.60;;;;;;;5.03;100.00;102021.97;4890475;28;20034;-81
2022/01/14 03:11:35;;;;;;;12.52;1.85;;;6.60;99.90;;;5.07;100.00;102013.25;4952296;28;20030;-81
2022/01/14 03:14:13;;;;;;;19.05;1.70;;;;;;;5.17;100.00;101975.78;4900184;28;20045;-79
2022/01/14 03:17:26;;;;;;;18.05;1.85;;;6.70;99.90;;;5.23;100.00;102029.75;4922492;28;20051;-79
2022/01/14 03:19:52;;;;;;;13.05;1.70;;;6.70;99.90;;;5.28;100.00;102020.16;4947392;28;20049;-79
2022/01/14 03:22:52;;;;;;;17.10;2.28;;;6.80;99.90;;;5.29;100.00;102029.69;4936351;23;20430;-81
2022/01/14 03:25:47;;;;;;;15.95;1.85;;;6.80;99.90;;;5.29;100.00;102029.69;4888181;28;20062;-79
2022/01/14 03:28:19;;;;;;;15.43;2.05;;;6.80;99.90;;;5.29;100.00;102043.66;4883262;28;20506;-82
2022/01/14 03:30:47;;;;;;;12.38;2.20;;;6.80;99.90;;;5.34;100.00;102010.53;4940253;28;20125;-79
2022/01/14 03:33:23;;;;;;;12.55;1.95;;;6.90;99.90;;;5.42;100.00;102047.09;4913921;28;20034;-81
2022/01/14 03:35:50;;;;;;;17.05;2.65;;;;;;;5.42;100.00;102046.19;4922154;28;20041;-79
2022/01/14 03:38:40;;;;;;;14.15;2.20;;;6.90;99.90;;;5.45;100.00;102020.94;4933663;28;20042;-80
2022/01/14 03:41:10;;;;;;;10.52;1.70;;;7.00;99.90;;;5.50;100.00;102065.31;4871394;28;20059;-82
2022/01/14 03:43:51;;;;;;;12.18;1.70;;;7.00;99.90;;;5.52;100.00;102043.53;4888797;28;20185;-79
2022/01/14 03:46:30;;;;;;;13.95;1.90;;;;;;;5.59;100.00;102053.97;4895516;28;20117;-81
2022/01/14 03:48:56;;;;;;;10.40;1.67;;;7.10;99.90;;;5.59;100.00;102054.81;4901424;28;20048;-82
2022/01/14 03:51:26;;;;;;;6.13;1.35;;;7.10;99.90;;;5.62;100.00;102060.06;4892382;28;20467;-80
2022/01/14 03:53:53;;;;;;;10.82;2.20;;;7.10;99.90;;;5.60;100.00;102056.56;4895778;28;20254;-79
2022/01/14 03:56:22;;;;;;;12.23;1.70;;;7.10;99.90;;;5.60;100.00;102053.97;4889529;28;20956;-79
2022/01/14 03:58:58;;;;;;;9.90;1.25;;;7.10;99.90;;;5.70;100.00;102057.38;4883107;28;20063;-78
2022/01/14 04:01:42;;;;;;;15.00;1.75;;;7.20;99.90;;;5.74;100.00;102062.63;4894031;28;20053;-80
2022/01/14 04:04:08;;;;;;;11.27;1.63;;;7.00;99.90;;;5.75;100.00;102059.13;4981827;23;20046;-80
2022/01/14 04:06:40;;;;;;;11.73;1.45;;;7.20;99.90;;;5.78;100.00;102047.75;4911188;28;20050;-81
2022/01/14 04:09:09;;;;;;;7.80;1.27;;;;;;;5.80;100.00;102035.56;4892621;28;20124;-81
2022/01/14 04:12:01;;;;;;;9.05;1.30;;;;;;;5.83;100.00;102039.91;4902364;28;20519;-83
2022/01/14 04:17:10;;;;;;;10.68;1.70;;;7.30;99.90;;;5.76;100.00;102031.22;4853723;28;20511;-79
2022/01/14 04:19:58;;;;;;;12.45;2.10;;;7.30;99.90;;;5.76;100.00;102036.44;4881057;28;20035;-80
2022/01/14 04:22:29;;;;;;;7.07;1.15;;;7.30;99.90;;;5.77;100.00;102030.38;4935553;23;20175;-80
2022/01/14 04:25:06;;;;;;;14.38;1.40;;;7.30;99.90;;;5.75;100.00;102013.81;4888436;28;20121;-81
2022/01/14 04:27:33;;;;;;;11.27;1.40;;;7.30;99.90;;;5.81;100.00;102033.81;4965890;28;20025;-80
2022/01/14 04:29:59;;;;;;;6.75;1.50;;;7.30;99.90;;;5.84;100.00;102037.28;4953399;28;20048;-79
2022/01/14 04:32:37;;;;;;;5.57;1.30;;;7.30;99.90;;;5.86;100.00;102027.69;4920958;28;20026;-80
2022/01/14 04:35:04;;;;;;;14.02;1.52;;;7.30;99.90;;;5.83;100.00;102017.25;4876237;28;20023;-79
2022/01/14 04:37:39;;;;;;;5.53;1.02;;;7.30;99.90;;;5.84;100.00;102005.91;4937623;28;20050;-81
2022/01/14 04:40:07;;;;;;;11.65;1.85;;;7.30;99.90;;;5.77;100.00;102012.06;4924827;28;20465;-79
2022/01/14 04:42:40;;;;;;;11.98;1.77;;;7.30;99.90;;;5.84;100.00;102010.28;4919618;23;20109;-80
2022/01/14 04:45:08;;;;;;;11.02;1.23;;;7.30;99.90;;;5.85;100.00;102007.66;4880671;28;20109;-83
2022/01/14 04:47:44;;;;;;;7.70;1.42;;;;;;;5.87;100.00;102008.50;4893097;28;20479;-81
2022/01/14 04:50:29;;;;;;;9.63;2.03;;;7.40;99.90;;;5.86;100.00;101993.69;4917143;28;20033;-78
2022/01/14 04:52:55;;;;;;;9.30;1.40;;;7.30;99.90;;;5.85;100.00;101989.38;4922286;28;20044;-78
2022/01/14 04:55:32;;;;;;;9.45;1.83;;;7.40;99.90;;;5.85;100.00;102001.53;4903885;28;20069;-80
2022/01/14 04:57:58;;;;;;;15.82;2.22;;;7.40;99.90;;;5.89;100.00;102000.66;4900173;28;20034;-78
2022/01/14 05:00:53;;;;;;;134.43;12.60;;;7.40;99.90;;;5.90;100.00;102010.25;4890506;28;20091;-80
2022/01/14 05:03:19;;;;;;;74.22;5.47;;;7.40;99.90;;;5.94;100.00;102005.00;4915393;23;20104;-81
2022/01/14 05:05:59;;;;;;;;;;;;;;;;;;;;;
2022/01/14 05:08:40;;;;;;;13.25;2.70;;;7.50;99.90;;;5.91;100.00;101989.28;4891477;28;20484;-80
2022/01/14 05:13:44;;;;;;;15.25;3.00;;;7.40;99.90;;;5.91;100.00;101989.28;4905680;28;20022;-80
2022/01/14 05:16:10;;;;;;;11.73;2.55;;;7.40;99.90;;;5.91;100.00;101991.06;4860564;28;20039;-79
2022/01/14 05:18:40;;;;;;;10.00;2.70;;;;;;;5.89;100.00;101980.59;4870554;28;20126;-81
2022/01/14 05:21:10;;;;;;;17.63;3.08;;;;;;;5.93;100.00;101987.53;4853334;28;20418;-80
2022/01/14 05:23:36;;;;;;;9.77;2.03;;;7.40;99.90;;;5.90;100.00;101984.97;4905699;28;20107;-80
2022/01/14 05:26:11;;;;;;;13.45;2.45;;;7.40;99.90;;;5.90;100.00;101979.72;4911688;28;20046;-78
2022/01/14 05:28:38;;;;;;;10.63;2.03;;;7.40;99.90;;;5.87;100.00;101964.06;4878016;28;20032;-80
2022/01/14 05:31:04;;;;;;;15.88;2.92;;;7.40;99.90;;;5.89;100.00;101970.13;4881124;28;20030;-81
2022/01/14 05:33:56;;;;;;;12.00;2.45;;;7.40;99.90;;;5.87;100.00;101963.19;4900103;28;20444;-78
2022/01/14 05:36:22;;;;;;;17.75;3.50;;;7.40;99.90;;;5.90;100.00;101971.03;4864260;28;20046;-80
2022/01/14 05:38:48;;;;;;;16.20;3.50;;;7.40;99.90;;;5.89;100.00;101979.72;4868981;28;21307;-79
2022/01/14 05:41:21;;;;;;;10.07;2.63;;;7.40;99.90;;;5.93;100.00;101986.69;4875979;28;20049;-80
2022/01/14 05:43:50;;;;;;;13.40;3.35;;;7.40;99.90;;;5.94;100.00;101981.47;4905574;28;20049;-81
2022/01/14 05:46:29;;;;;;;16.63;3.00;;;7.40;99.90;;;5.94;100.00;101975.38;4887995;28;20043;-80
2022/01/14 05:49:07;;;;;;;18.80;3.20;;;;;;;5.95;100.00;101984.97;4864481;28;20057;-81
2022/01/14 05:51:33;;;;;;;16.83;2.95;;;;;;;5.90;100.00;101956.22;4855725;28;20038;-80
2022/01/14 05:53:59;;;;;;;13.25;2.72;;;7.50;99.90;;;5.86;100.00;101978.00;4871246;28;20085;-80
2022/01/14 05:56:39;;;;;;;19.38;3.50;;;;;;;5.89;100.00;101964.06;4877020;28;20042;-81
2022/01/14 05:59:32;;;;;;;11.63;2.58;;;;;;;5.85;100.00;101957.09;4915501;28;20194;-80
2022/01/14 06:04:48;;;;;;;15.05;3.22;;;7.40;99.90;;;5.84;100.00;101977.16;4942194;28;20961;-80
2022/01/14 06:07:14;;;;;;;78.70;6.03;;;;;;;5.88;100.00;101967.56;4856078;28;20039;-81
2022/01/14 06:09:40;;;;;;;12.48;2.78;;;7.40;99.90;;;5.87;100.00;101950.97;4862012;28;20055;-81
2022/01/14 06:12:07;;;;;;;17.27;3.42;;;;;;;5.85;100.00;101959.72;4830983;28;20040;-79
2022/01/14 06:14:42;;;;;;;23.73;3.90;;;7.40;99.90;;;5.88;100.00;101957.97;4882371;28;20039;-80
2022/01/14 06:17:07;;;;;;;1554.38;770.55;;;7.40;99.90;;;5.86;100.00;101964.94;4836932;28;20744;-80
2022/01/14 06:19:36;;;;;;;14.30;2.88;;;7.30;99.90;;;5.84;100.00;101947.53;4876039;28;20054;-80
2022/01/14 06:22:12;;;;;;;1057.18;111.45;;;7.40;99.90;;;5.82;100.00;101967.59;4876637;28;20990;-80
2022/01/14 06:24:39;;;;;;;9.48;2.47;;;;;;;5.81;100.00;101973.69;4874904;28;20034;-80
2022/01/14 06:27:17;;;;;;;12.52;2.70;;;7.30;99.90;;;5.83;100.00;101964.09;4888854;28;20094;-82
2022/01/14 06:29:43;;;;;;;14.65;3.13;;;7.30;99.90;;;5.79;100.00;101968.50;4902930;28;20452;-82
2022/01/14 06:32:21;;;;;;;27.08;3.80;;;7.30;99.90;;;5.82;100.00;101967.59;4907243;28;20030;-81
2022/01/14 06:34:47;;;;;;;16.98;2.83;;;7.30;99.90;;;5.79;100.00;101954.53;4837748;28;20567;-81
2022/01/14 06:37:23;;;;;;;20.15;3.15;;;;;;;5.83;100.00;101944.06;4852652;28;20044;-81
2022/01/14 06:39:51;;;;;;;27.35;4.15;;;;;;;5.82;100.00;101937.09;4867136;28;20052;-82
2022/01/14 06:42:24;;;;;;;11.38;2.60;;;7.30;99.90;;;5.85;100.00;101929.25;4915574;23;20060;-82
2022/01/14 06:44:51;;;;;;;19.85;3.05;;;;;;;5.85;100.00;101934.47;4897793;28;20146;-80
2022/01/14 06:47:19;;;;;;;22.88;2.58;;;7.40;99.90;;;5.88;100.00;101928.34;4918723;28;20039;-83
2022/01/14 06:50:12;;;;;;;17.85;2.50;;;;;;;5.87;100.00;101940.53;4900375;28;20417;-82
2022/01/14 06:52:38;;;;;;;10.40;2.20;;;7.40;99.90;;;5.83;100.00;101930.09;4911926;28;20457;-81
2022/01/14 06:55:19;;;;;;;22.95;4.00;;;;;;;5.86;100.00;101933.56;4915899;28;20094;-83
2022/01/14 06:57:54;;;;;;;15.30;3.55;;;;;;;5.85;100.00;101937.09;4893135;28;20056;-83
2022/01/14 07:00:21;;;;;;;22.30;3.55;;;7.40;99.90;;;5.86;100.00;101928.34;4908675;28;20446;-81
2022/01/14 07:02:48;;;;;;;24.35;3.42;;;7.40;99.90;;;5.86;100.00;101928.34;4920625;28;20457;-83
2022/01/14 07:05:15;;;;;;;13.27;2.80;;;;;;;5.85;100.00;101923.13;4898703;28;20061;-81
2022/01/14 07:07:49;;;;;;;18.70;3.35;;;7.40;99.90;;;5.89;100.00;101917.00;4870338;28;20030;-81
2022/01/14 07:10:41;;;;;;;19.58;3.28;;;7.40;99.90;;;5.89;100.00;101910.00;4893888;28;20040;-81
2022/01/14 07:13:10;;;;;;;11.18;2.20;;;7.40;99.90;;;5.94;100.00;101931.81;4961175;28;20046;-82
2022/01/14 07:15:36;;;;;;;13.20;2.20;;;7.40;99.90;;;5.89;100.00;101937.91;4899415;28;20030;-79
2022/01/14 07:18:10;;;;;;;16.73;3.13;;;7.40;99.90;;;5.91;100.00;101950.09;4899682;28;20042;-81
2022/01/14 07:20:37;;;;;;;11.50;2.72;;;7.50;99.90;;;5.94;100.00;101957.06;4924237;28;20060;-83
2022/01/14 07:23:04;;;;;;;10.65;1.90;;;7.40;99.90;;;5.91;100.00;101944.00;4903527;28;20425;-80
2022/01/14 07:25:41;;;;;;;13.80;2.85;;;7.50;99.90;;;5.97;100.00;101953.59;4861844;28;20042;-81
2022/01/14 07:28:08;;;;;;;16.10;3.05;;;;;;;6.01;100.00;101969.22;4869932;28;20116;-82
2022/01/14 07:30:46;;;;;;;14.60;2.65;;;7.50;99.90;;;5.98;100.00;101950.94;4878816;28;20035;-82
2022/01/14 07:33:12;;;;;;;15.48;2.63;;;7.40;99.90;;;5.98;100.00;101968.38;4887194;28;20065;-82
2022/01/14 07:35:51;;;;;;;11.35;1.85;;;;;;;5.94;100.00;101963.19;4893290;28;20037;-81
2022/01/14 07:38:16;;;;;;;8.10;1.58;;;7.50;99.90;;;5.91;100.00;101960.53;4912397;28;20505;-82
2022/01/14 07:40:51;;;;;;;20.77;2.55;;;7.50;99.90;;;6.00;100.00;101957.03;4944112;28;20045;-80
2022/01/14 07:43:19;;;;;;;21.35;2.90;;;7.50;99.90;;;5.98;100.00;101966.63;4912559;28;20042;-83
2022/01/14 07:46:09;;;;;;;10.38;1.98;;;7.50;99.90;;;5.94;100.00;101965.78;4895599;28;20113;-83
2022/01/14 07:48:55;;;;;;;13.98;2.45;;;7.50;99.90;;;5.95;100.00;101970.13;4950520;28;20041;-83
2022/01/14 07:51:26;;;;;;;6.90;1.70;;;7.50;99.90;;;5.90;100.00;101977.13;4885821;28;20516;-82
2022/01/14 07:54:04;;;;;;;14.60;2.25;;;;;;;5.90;100.00;101957.97;4884143;28;20051;-79
2022/01/14 07:56:47;;;;;;;7.05;1.88;;;7.50;99.90;;;5.92;100.00;101959.69;4886690;28;20597;-82
2022/01/14 07:59:27;;;;;;;14.77;2.10;;;7.50;99.90;;;5.93;100.00;101969.25;4894447;28;20525;-82
2022/01/14 08:01:58;;;;;;;14.15;1.98;;;7.40;99.90;;;5.89;100.00;101959.69;4904196;28;20519;-79
2022/01/14 08:04:38;;;;;;;;;;;;;;;;;;;;;
2022/01/14 08:07:16;;;;;;;7.63;1.33;;;7.50;99.90;;;5.97;100.00;101985.81;4912356;28;20401;-79
2022/01/14 08:09:43;;;;;;;7.78;1.52;;;7.50;99.90;;;5.95;100.00;101984.97;4909043;28;20042;-83
2022/01/14 08:12:16;;;;;;;6.57;1.40;;;7.50;99.90;;;5.94;100.00;101993.66;4893355;28;21366;-80
2022/01/14 08:14:43;;;;;;;9.82;1.40;;;;;;;5.93;100.00;101995.38;4941274;28;20044;-82
2022/01/14 08:17:11;;;;;;;8.13;1.50;;;7.50;99.90;;;5.95;100.00;101996.28;4925713;28;20052;-79
2022/01/14 08:20:01;;;;;;;1.92;0.88;;;7.50;99.90;;;5.95;100.00;101992.81;4879408;28;20096;-81
2022/01/14 08:22:28;;;;;;;5.13;1.10;;;7.50;99.90;;;5.94;100.00;101989.31;4950604;23;20422;-81
2022/01/14 08:24:55;;;;;;;7.65;1.48;;;7.50;99.90;;;6.03;100.00;101998.00;4928016;28;20026;-78
2022/01/14 08:27:21;;;;;;;10.65;1.67;;;7.60;99.90;;;6.11;100.00;102019.69;4888915;28;20113;-81
2022/01/14 08:29:56;;;;;;;3.95;0.90;;;7.60;99.90;;;6.11;100.00;102011.84;4862366;28;20043;-83
2022/01/14 08:32:22;;;;;;;6.93;1.45;;;7.90;99.90;;;6.05;100.00;102049.38;4896088;28;20057;-81
2022/01/14 08:34:50;;;;;;;6.60;1.55;;;7.60;99.90;;;6.09;100.00;102145.25;4878219;28;20038;-80
2022/01/14 08:37:25;;;;;;;6.78;1.38;;;7.60;99.90;;;6.11;100.00;102315.22;4887637;28;20039;-82
2022/01/14 08:39:51;;;;;;;6.55;1.40;;;7.60;99.90;;;6.14;100.00;102287.31;4891508;28;20043;-83
2022/01/14 08:42:17;;;;;;;9.32;1.20;;;7.70;99.90;;;6.23;100.00;102254.16;4883894;28;20096;-80
2022/01/14 08:44:50;;;;;;;11.07;1.35;;;;;;;6.22;100.00;102083.28;4906742;28;20075;-82
2022/01/14 08:47:17;;;;;;;8.05;1.58;;;;;;;6.23;100.00;102043.16;4887428;28;20380;-84
2022/01/14 08:49:45;;;;;;;5.95;1.25;;;7.80;99.90;;;6.26;100.00;102056.19;4933304;28;20037;-85
2022/01/14 08:52:39;;;;;;;6.50;1.23;;;7.80;99.90;;;6.30;100.00;102049.19;4915239;28;20096;-78
2022/01/14 08:55:17;;;;;;;7.55;1.17;;;7.80;99.90;;;6.35;100.00;102039.59;4915357;28;20041;-83
2022/01/14 08:58:10;;;;;;;9.40;1.13;;;7.90;99.90;;;6.44;100.00;102022.94;4889957;28;20047;-80
2022/01/14 09:00:40;;;;;;;8.25;1.23;;;7.90;99.90;;;6.42;100.00;102038.66;4838703;28;20048;-78
2022/01/14 09:03:12;;;;;;;7.78;1.38;;;7.90;99.90;;;6.45;100.00;102006.34;4889180;23;20089;-81
2022/01/14 09:06:31;;;;;;;11.40;1.35;;;;;;;6.51;100.00;102033.31;4907700;28;20042;-79
2022/01/14 09:09:07;;;;;;;6.15;0.95;;;8.00;99.90;;;6.51;100.00;102006.31;4916883;28;20693;-81
2022/01/14 09:11:34;;;;;;;11.43;1.50;;;8.00;99.90;;;6.54;100.00;101990.56;4882425;28;20321;-82
2022/01/14 09:14:00;;;;;;;8.65;1.38;;;8.00;99.90;;;6.61;100.00;102007.97;4931193;28;20030;-78
2022/01/14 09:16:36;;;;;;;7.03;1.45;;;;;;;6.60;100.00;102000.97;4918804;28;20029;-79
2022/01/14 09:19:14;;;;;;;7.43;1.40;;;8.00;99.90;;;6.58;100.00;101992.25;4939413;28;20626;-83
2022/01/14 09:24:19;;;;;;;2.95;0.98;;;;;;;6.67;100.00;101968.59;4886981;23;20050;-83
2022/01/14 09:26:59;;;;;;;;;;;;;;;;;;;;;
2022/01/14 09:29:34;;;;;;;6.75;1.20;;;8.30;99.90;;;6.86;100.00;101961.44;4925523;28;20075;-80
2022/01/14 09:32:00;;;;;;;7.82;1.38;;;8.20;99.90;;;6.84;100.00;101978.03;4888124;28;20042;-80
2022/01/14 09:34:55;;;;;;;8.43;1.40;;;;;;;6.82;100.00;101974.56;4914601;28;20199;-79
2022/01/14 09:37:25;;;;;;;7.38;1.30;;;8.30;99.90;;;6.84;100.00;101980.66;4953202;28;20033;-81
2022/01/14 09:39:51;;;;;;;4.65;1.08;;;8.30;99.90;;;6.87;100.00;101973.66;4924110;28;20214;-83
2022/01/14 09:42:31;;;;;;;6.53;1.42;;;9.00;99.90;;;7.01;100.00;101981.34;4895086;23;20555;-83
2022/01/14 09:45:06;;;;;;;4.25;1.33;;;8.50;99.90;;;7.13;100.00;101983.81;4887823;28;20049;-82
2022/01/14 09:47:32;;;;;;;5.82;1.02;;;8.40;99.90;;;7.04;100.00;101965.59;4885635;28;20980;-79
2022/01/14 09:50:09;;;;;;;3.28;1.05;;;8.40;99.90;;;7.08;100.00;101971.66;4889774;28;20352;-80
2022/01/14 09:52:39;;;;;;;2.88;0.95;;;8.60;99.90;;;7.09;100.00;101965.53;4867163;28;20035;-81
2022/01/14 09:55:11;;;;;;;6.22;1.60;;;8.50;99.90;;;7.08;100.00;101982.13;4907299;28;20045;-80
2022/01/14 09:57:43;;;;;;;5.53;1.35;;;8.50;99.90;;;6.96;100.00;101989.25;4871025;28;20029;-82
2022/01/14 10:00:16;;;;;;;8.23;1.25;;;8.40;99.90;;;6.97;100.00;101996.19;4874762;28;20065;-84
2022/01/14 10:02:43;;;;;;;4.55;0.90;;;8.50;99.90;;;6.99;100.00;101980.47;4868501;28;20030;-81
2022/01/14 10:05:37;;;;;;;3.13;1.25;;;8.50;99.90;;;6.98;100.00;101994.47;4891286;28;20109;-81
2022/01/14 10:08:23;;;;;;;6.53;1.25;;;;;;;7.01;100.00;101989.19;4878328;28;20120;-81
2022/01/14 10:11:00;;;;;;;6.50;1.10;;;8.50;99.90;;;7.03;100.00;101995.28;4869452;28;20809;-81
2022/01/14 10:13:39;;;;;;;6.97;1.20;;;8.50;99.90;;;7.08;100.00;101988.22;4878566;28;20039;-80
2022/01/14 10:16:23;;;;;;;7.13;1.27;;;8.60;99.90;;;7.14;100.00;101992.53;4940524;28;20033;-83
2022/01/14 10:19:19;;;;;;;4.75;1.30;;;8.60;99.90;;;7.14;100.00;102001.25;4906814;28;20414;-81
2022/01/14 10:21:57;;;;;;;6.10;1.00;;;8.50;99.90;;;7.03;100.00;101994.41;4904758;28;20030;-82
2022/01/14 10:24:31;;;;;;;5.40;1.13;;;8.60;99.90;;;7.11;100.00;101989.97;4863405;28;20293;-81
2022/01/14 10:27:03;;;;;;;10.82;1.75;;;8.60;99.90;;;7.16;100.00;101991.63;4845083;28;20032;-81
2022/01/14 10:29:53;;;;;;;;;;;;;;;;;;;;;
2022/01/14 10:32:30;;;;;;;3.92;1.25;;;8.60;99.90;;;7.08;100.00;102003.94;4876178;28;20034;-80
2022/01/14 10:35:21;;;;;;;6.30;1.25;;;8.60;99.90;;;7.07;100.00;101980.41;4896558;28;20053;-80
2022/01/14 10:38:10;;;;;;;8.52;1.52;;;8.60;99.90;;;7.15;100.00;101997.75;4872375;28;20399;-82
2022/01/14 10:40:56;;;;;;;3.08;0.95;;;8.60;99.90;;;7.21;100.00;101994.19;4882280;28;20046;-80
2022/01/14 10:43:36;;;;;;;6.38;1.52;;;8.60;99.90;;;7.20;100.00;101976.75;4892335;28;20038;-81
2022/01/14 10:46:10;;;;;;;7.68;1.63;;;8.70;99.90;;;7.27;100.00;101988.88;4907108;28;20654;-83
2022/01/14 10:48:57;;;;;;;5.22;1.02;;;8.70;99.90;;;7.23;100.00;102008.13;4943051;28;20122;-81
2022/01/14 10:51:33;;;;;;;5.70;0.82;;;8.70;99.90;;;7.30;100.00;101983.63;4930973;28;20082;-79
2022/01/14 10:54:01;;;;;;;10.02;1.17;;;8.80;99.90;;;7.44;100.00;101987.78;4947313;28;20017;-79
2022/01/14 10:56:32;;;;;;;5.68;1.25;;;8.80;99.90;;;7.53;100.00;101993.75;4941113;28;20042;-78
2022/01/14 10:58:59;;;;;;;13.48;1.70;;;8.90;99.90;;;7.64;100.00;102005.88;4921469;28;20022;-77
2022/01/14 11:01:27;;;;;;;9.23;1.52;;;9.00;99.90;;;7.66;100.00;101993.59;4913827;28;20043;-79
2022/01/14 11:04:14;;;;;;;3.50;0.85;;;9.00;99.90;;;7.73;100.00;102000.47;4917500;28;20138;-79
2022/01/14 11:06:56;;;;;;;2.65;0.60;;;9.10;99.90;;;7.67;100.00;102005.84;4895808;28;20469;-79
2022/01/14 11:09:24;;;;;;;6.85;0.95;;;9.00;99.90;;;7.65;100.00;102012.84;4914243;28;20026;-80
2022/01/14 11:11:52;;;;;;;7.07;1.02;;;9.10;99.90;;;7.65;100.00;102031.22;4898534;28;20383;-81
2022/01/14 11:14:28;;;;;;;8.80;1.35;;;;;;;7.67;100.00;102022.44;4871665;28;20029;-84
2022/01/14 11:17:09;;;;;;;;;;;;;;;;;;;;;
2022/01/14 11:19:50;;;;;;;7.22;1.40;;;9.10;99.90;;;7.69;100.00;102023.28;4908812;28;20048;-82
2022/01/14 11:25:11;;;;;;;6.97;1.05;;;;;;;7.69;100.00;101999.69;4875979;28;20077;-85
2022/01/14 11:27:50;;;;;;;10.45;2.08;;;9.10;99.90;;;7.73;100.00;102006.63;4846283;28;20178;-83
2022/01/14 11:30:17;;;;;;;10.05;1.27;;;;;;;7.76;100.00;102029.31;4816484;29;20035;-85
2022/01/14 11:33:05;;;;;;;9.55;1.02;;;9.10;99.90;;;7.75;100.00;102014.44;4825199;29;20540;-85
2022/01/14 11:36:06;;;;;;;8.48;0.98;;;9.10;99.90;;;7.74;100.00;102021.44;4814200;29;20118;-82
2022/01/14 11:38:45;;;;;;;10.77;1.40;;;;;;;7.70;100.00;102018.88;4776715;29;20030;-84
2022/01/14 11:41:36;;;;;;;8.15;1.27;;;;;;;7.74;100.00;102012.72;4908073;29;20047;-90
2022/01/14 11:44:07;;;;;;;6.43;1.20;;;9.10;99.90;;;7.73;100.00;102013.59;4837482;29;20449;-80
2022/01/14 11:46:43;;;;;;;8.63;1.20;;;9.10;99.90;;;7.81;100.00;102053.69;4856114;28;20490;-81